createdAt,value
2018-12-05T00:01:27.984Z,2.53
2018-12-05T00:03:54.375Z,2.65
2018-12-05T00:06:20.623Z,1.90
2018-12-05T00:08:48.817Z,1.30
2018-12-05T00:11:15.965Z,2.60
2018-12-05T00:13:42.157Z,2.00
2018-12-05T00:16:08.389Z,3.00
2018-12-05T00:18:34.622Z,2.23
2018-12-05T00:21:00.847Z,2.63
2018-12-05T00:23:27.022Z,1.90
2018-12-05T00:25:53.179Z,3.07
2018-12-05T00:28:19.442Z,1.47
2018-12-05T00:30:45.713Z,2.53
2018-12-05T00:33:11.885Z,2.47
2018-12-05T00:35:38.280Z,1.70
2018-12-05T00:38:05.578Z,2.57
2018-12-05T00:40:31.886Z,2.23
2018-12-05T00:42:58.030Z,3.35
2018-12-05T00:45:24.412Z,3.40
2018-12-05T00:47:50.664Z,1.97
2018-12-05T00:50:16.884Z,2.27
2018-12-05T00:52:43.144Z,1.50
2018-12-05T00:55:09.453Z,2.30
2018-12-05T00:57:35.679Z,2.30
2018-12-05T01:00:02.601Z,2.50
2018-12-05T01:02:28.974Z,2.00
2018-12-05T01:04:55.327Z,2.08
2018-12-05T01:07:21.597Z,1.90
2018-12-05T01:09:47.832Z,2.37
2018-12-05T01:12:14.115Z,2.20
2018-12-05T01:14:40.361Z,2.20
2018-12-05T01:17:06.899Z,4.30
2018-12-05T01:19:33.380Z,3.25
2018-12-05T01:21:59.756Z,1.93
2018-12-05T01:24:26.281Z,2.20
2018-12-05T01:26:52.784Z,2.05
2018-12-05T01:29:19.089Z,2.23
2018-12-05T01:31:45.337Z,2.60
2018-12-05T01:34:12.244Z,3.23
2018-12-05T01:36:38.510Z,2.02
2018-12-05T01:39:05.971Z,1.70
2018-12-05T01:41:32.176Z,2.02
2018-12-05T01:43:58.450Z,2.30
2018-12-05T01:46:24.753Z,2.13
2018-12-05T01:48:51.024Z,2.10
2018-12-05T01:51:17.359Z,2.60
2018-12-05T01:53:43.622Z,2.02
2018-12-05T01:56:09.952Z,2.50
2018-12-05T01:58:36.209Z,2.05
2018-12-05T02:03:58.377Z,2.40
2018-12-05T02:06:24.735Z,1.85
2018-12-05T02:08:51.065Z,2.33
2018-12-05T02:11:17.317Z,2.60
2018-12-05T02:13:43.581Z,1.83
2018-12-05T02:16:09.934Z,2.50
2018-12-05T02:18:36.279Z,1.80
2018-12-05T02:21:02.843Z,2.27
2018-12-05T02:23:29.354Z,3.30
2018-12-05T02:25:55.671Z,2.50
2018-12-05T02:28:21.940Z,2.60
2018-12-05T02:30:48.346Z,4.27
2018-12-05T02:33:14.639Z,3.40
2018-12-05T02:35:40.893Z,2.93
2018-12-05T02:38:07.149Z,2.90
2018-12-05T02:40:33.337Z,2.97
2018-12-05T02:42:59.596Z,2.57
2018-12-05T02:45:25.936Z,2.63
2018-12-05T02:47:52.122Z,2.80
2018-12-05T02:50:18.383Z,2.37
2018-12-05T02:52:44.674Z,2.80
2018-12-05T02:55:11.345Z,2.73
2018-12-05T02:57:37.610Z,3.37
2018-12-05T03:00:05.208Z,2.67
2018-12-05T03:02:31.446Z,3.80
2018-12-05T03:04:57.858Z,2.70
2018-12-05T03:07:24.107Z,1.87
2018-12-05T03:09:50.351Z,1.90
2018-12-05T03:12:16.580Z,2.77
2018-12-05T03:14:42.839Z,2.47
2018-12-05T03:17:09.089Z,1.90
2018-12-05T03:19:35.391Z,2.50
2018-12-05T03:22:01.670Z,2.43
2018-12-05T03:24:28.463Z,2.00
2018-12-05T03:26:54.638Z,2.20
2018-12-05T03:29:20.777Z,2.27
2018-12-05T03:31:47.027Z,2.27
2018-12-05T03:34:13.275Z,3.27
2018-12-05T03:36:39.642Z,2.10
2018-12-05T03:39:07.972Z,2.97
2018-12-05T03:41:35.320Z,2.47
2018-12-05T03:44:01.503Z,2.83
2018-12-05T03:46:27.772Z,1.65
2018-12-05T03:48:53.997Z,2.23
2018-12-05T03:51:20.280Z,2.10
2018-12-05T03:53:46.439Z,2.17
2018-12-05T03:56:12.800Z,2.03
2018-12-05T03:58:39.147Z,2.30
2018-12-05T04:01:05.561Z,2.20
2018-12-05T04:03:31.806Z,3.20
2018-12-05T04:05:58.103Z,3.23
2018-12-05T04:08:24.218Z,2.50
2018-12-05T04:10:50.369Z,2.30
2018-12-05T04:13:16.491Z,1.73
2018-12-05T04:15:42.617Z,2.17
2018-12-05T04:18:08.741Z,2.57
2018-12-05T04:20:34.884Z,1.83
2018-12-05T04:23:01.109Z,2.87
2018-12-05T04:25:27.678Z,2.23
2018-12-05T04:27:53.827Z,2.65
2018-12-05T04:30:20.205Z,2.17
2018-12-05T04:32:46.631Z,2.30
2018-12-05T04:35:12.748Z,2.20
2018-12-05T04:37:38.979Z,3.00
2018-12-05T04:40:05.250Z,2.00
2018-12-05T04:42:31.561Z,2.63
2018-12-05T04:44:58.591Z,2.20
2018-12-05T04:47:24.883Z,1.97
2018-12-05T04:49:51.211Z,2.50
2018-12-05T04:52:17.482Z,2.67
2018-12-05T04:54:43.610Z,3.03
2018-12-05T04:57:09.838Z,1.90
2018-12-05T04:59:36.024Z,2.83
2018-12-05T05:02:02.674Z,3.27
2018-12-05T05:04:28.823Z,2.70
2018-12-05T05:06:54.946Z,3.07
2018-12-05T05:09:21.017Z,2.83
2018-12-05T05:11:47.313Z,2.90
2018-12-05T05:14:13.408Z,3.62
2018-12-05T05:16:39.634Z,3.00
2018-12-05T05:19:05.756Z,3.40
2018-12-05T05:21:31.887Z,4.22
2018-12-05T05:23:58.088Z,3.70
2018-12-05T05:26:25.226Z,3.50
2018-12-05T05:28:51.354Z,3.47
2018-12-05T05:31:17.577Z,3.07
2018-12-05T05:33:44.567Z,2.80
2018-12-05T05:36:11.032Z,3.15
2018-12-05T05:38:37.169Z,3.43
2018-12-05T05:41:03.824Z,3.40
2018-12-05T05:43:30.034Z,3.23
2018-12-05T05:45:56.121Z,4.30
2018-12-05T05:48:22.345Z,5.63
2018-12-05T05:50:48.568Z,5.37
2018-12-05T05:53:14.801Z,5.20
2018-12-05T05:55:40.925Z,5.03
2018-12-05T05:58:07.034Z,5.35
2018-12-05T06:00:33.241Z,5.30
2018-12-05T06:02:59.371Z,4.40
2018-12-05T06:05:25.607Z,3.25
2018-12-05T06:07:51.902Z,4.60
2018-12-05T06:10:17.985Z,4.90
2018-12-05T06:12:44.221Z,4.53
2018-12-05T06:15:10.333Z,5.03
2018-12-05T06:17:36.477Z,5.67
2018-12-05T06:20:03.375Z,6.17
2018-12-05T06:22:29.475Z,6.80
2018-12-05T06:24:55.698Z,6.40
2018-12-05T06:27:21.908Z,6.53
2018-12-05T06:29:48.013Z,5.50
2018-12-05T06:32:14.214Z,5.90
2018-12-05T06:34:40.354Z,5.72
2018-12-05T06:37:06.583Z,5.97
2018-12-05T06:39:32.701Z,4.90
2018-12-05T06:41:59.056Z,4.50
2018-12-05T06:44:25.235Z,4.70
2018-12-05T06:46:51.582Z,4.47
2018-12-05T06:49:17.798Z,4.70
2018-12-05T06:51:44.028Z,4.97
2018-12-05T06:54:10.203Z,5.03
2018-12-05T06:56:36.331Z,5.58
2018-12-05T06:59:02.573Z,5.17
2018-12-05T07:01:28.776Z,4.50
2018-12-05T07:03:59.614Z,4.10
2018-12-05T07:06:25.728Z,5.23
2018-12-05T07:08:52.053Z,5.27
2018-12-05T07:11:18.246Z,5.23
2018-12-05T07:13:44.562Z,5.80
2018-12-05T07:16:10.865Z,5.40
2018-12-05T07:18:37.035Z,5.20
2018-12-05T07:21:03.354Z,5.30
2018-12-05T07:23:29.561Z,5.40
2018-12-05T07:25:55.775Z,5.60
2018-12-05T07:28:21.869Z,5.83
2018-12-05T07:30:48.131Z,6.53
2018-12-05T07:33:14.490Z,6.65
2018-12-05T07:35:40.597Z,7.20
2018-12-05T07:38:06.962Z,6.63
2018-12-05T07:40:33.282Z,6.30
2018-12-05T07:42:59.509Z,6.07
2018-12-05T07:45:25.661Z,6.80
2018-12-05T07:47:51.758Z,6.20
2018-12-05T07:50:18.126Z,6.83
2018-12-05T07:52:44.288Z,6.00
2018-12-05T07:55:10.417Z,6.40
2018-12-05T07:57:43.783Z,5.90
2018-12-05T08:00:09.947Z,5.90
2018-12-05T08:02:36.058Z,5.90
2018-12-05T08:05:02.473Z,6.25
2018-12-05T08:07:28.692Z,6.37
2018-12-05T08:09:54.782Z,7.60
2018-12-05T08:12:21.007Z,6.17
2018-12-05T08:14:47.225Z,6.03
2018-12-05T08:17:13.503Z,7.00
2018-12-05T08:19:39.819Z,6.00
2018-12-05T08:22:06.130Z,5.97
2018-12-05T08:24:32.426Z,7.57
2018-12-05T08:26:58.548Z,6.10
2018-12-05T08:29:24.646Z,7.33
2018-12-05T08:31:50.972Z,6.70
2018-12-05T08:34:17.170Z,6.60
2018-12-05T08:36:43.269Z,7.33
2018-12-05T08:39:09.486Z,6.80
2018-12-05T08:41:35.705Z,6.85
2018-12-05T08:44:02.036Z,7.43
2018-12-05T08:46:28.247Z,5.67
2018-12-05T08:48:54.407Z,6.30
2018-12-05T08:51:20.636Z,6.33
2018-12-05T08:53:46.751Z,6.47
2018-12-05T08:56:13.157Z,6.50
2018-12-05T08:58:39.305Z,7.03
2018-12-05T09:01:05.542Z,5.77
2018-12-05T09:03:31.770Z,6.10
2018-12-05T09:05:57.914Z,10.90
2018-12-05T09:08:24.249Z,7.03
2018-12-05T09:10:51.591Z,5.80
2018-12-05T09:13:17.833Z,5.37
2018-12-05T09:15:43.936Z,5.23
2018-12-05T09:18:10.127Z,4.97
2018-12-05T09:20:36.373Z,5.17
2018-12-05T09:23:02.698Z,4.77
2018-12-05T09:25:28.941Z,5.90
2018-12-05T09:27:55.202Z,5.77
2018-12-05T09:30:21.343Z,5.67
2018-12-05T09:32:47.594Z,5.53
2018-12-05T09:35:13.714Z,5.93
2018-12-05T09:37:39.915Z,5.80
2018-12-05T09:40:06.252Z,4.90
2018-12-05T09:42:32.589Z,5.50
2018-12-05T09:44:58.869Z,5.25
2018-12-05T09:47:24.963Z,5.47
2018-12-05T09:49:51.187Z,6.30
2018-12-05T09:52:17.433Z,5.57
2018-12-05T09:54:43.633Z,4.97
2018-12-05T09:57:09.805Z,5.80
2018-12-05T09:59:36.013Z,5.70
2018-12-05T10:02:02.434Z,4.72
2018-12-05T10:04:28.648Z,5.37
2018-12-05T10:06:54.908Z,4.83
2018-12-05T10:09:21.033Z,5.13
2018-12-05T10:11:47.153Z,4.53
2018-12-05T10:14:13.283Z,4.03
2018-12-05T10:16:39.350Z,4.30
2018-12-05T10:19:05.461Z,4.50
2018-12-05T10:21:31.857Z,4.00
2018-12-05T10:23:58.109Z,5.12
2018-12-05T10:26:24.310Z,4.57
2018-12-05T10:28:50.719Z,4.87
2018-12-05T10:31:16.910Z,6.00
2018-12-05T10:33:43.026Z,4.90
2018-12-05T10:36:09.131Z,4.77
2018-12-05T10:38:35.300Z,4.35
2018-12-05T10:41:01.555Z,5.50
2018-12-05T10:43:27.744Z,4.00
2018-12-05T10:45:54.105Z,4.45
2018-12-05T10:48:20.364Z,4.30
2018-12-05T10:50:46.440Z,4.27
2018-12-05T10:53:12.650Z,4.08
2018-12-05T10:55:38.782Z,5.50
2018-12-05T10:58:05.026Z,4.17
2018-12-05T11:00:37.632Z,3.75
2018-12-05T11:03:10.055Z,4.50
2018-12-05T11:05:42.633Z,4.30
2018-12-05T11:08:15.054Z,4.10
2018-12-05T11:10:47.258Z,4.13
2018-12-05T11:13:26.481Z,5.60
2018-12-05T11:15:59.097Z,4.17
2018-12-05T11:18:32.887Z,5.20
2018-12-05T11:21:05.638Z,4.83
2018-12-05T11:23:38.009Z,4.47
2018-12-05T11:26:06.274Z,5.63
2018-12-05T11:28:32.668Z,5.50
2018-12-05T11:30:58.875Z,5.20
2018-12-05T11:33:25.078Z,5.00
2018-12-05T11:35:52.314Z,6.63
2018-12-05T11:38:18.497Z,6.27
2018-12-05T11:40:44.694Z,6.15
2018-12-05T11:43:11.606Z,5.23
2018-12-05T11:45:37.962Z,4.70
2018-12-05T11:48:04.257Z,8.83
2018-12-05T11:50:30.361Z,5.60
2018-12-05T11:52:57.138Z,4.57
2018-12-05T11:55:23.454Z,4.10
2018-12-05T11:57:49.530Z,5.70
2018-12-05T12:00:15.845Z,4.60
2018-12-05T12:02:42.022Z,5.62
2018-12-05T12:05:08.401Z,4.30
2018-12-05T12:07:41.440Z,5.75
2018-12-05T12:10:07.881Z,5.43
2018-12-05T12:12:40.402Z,5.17
2018-12-05T12:15:06.769Z,4.50
2018-12-05T12:17:33.118Z,4.00
2018-12-05T12:19:59.245Z,3.63
2018-12-05T12:22:25.571Z,3.97
2018-12-05T12:24:51.734Z,4.17
2018-12-05T12:27:17.951Z,3.60
2018-12-05T12:29:44.184Z,4.03
2018-12-05T12:32:10.453Z,3.23
2018-12-05T12:34:43.626Z,3.10
2018-12-05T12:37:09.830Z,2.87
2018-12-05T12:39:35.999Z,3.33
2018-12-05T12:42:02.353Z,4.55
2018-12-05T12:44:28.461Z,2.80
2018-12-05T12:46:54.573Z,3.33
2018-12-05T12:49:20.816Z,4.42
2018-12-05T12:51:46.994Z,3.80
2018-12-05T12:54:13.225Z,3.50
2018-12-05T12:56:39.496Z,3.72
2018-12-05T12:59:05.602Z,3.23
2018-12-05T13:01:31.839Z,5.50
2018-12-05T13:03:57.954Z,7.90
2018-12-05T13:06:24.202Z,3.90
2018-12-05T13:08:50.449Z,6.80
2018-12-05T13:11:16.589Z,3.37
2018-12-05T13:13:42.693Z,3.57
2018-12-05T13:16:08.907Z,8.87
2018-12-05T13:18:35.082Z,4.08
2018-12-05T13:21:01.329Z,4.00
2018-12-05T13:23:27.639Z,3.90
2018-12-05T13:25:53.750Z,3.70
2018-12-05T13:28:19.915Z,4.67
2018-12-05T13:30:46.141Z,5.00
2018-12-05T13:33:12.469Z,3.92
2018-12-05T13:35:38.600Z,3.80
2018-12-05T13:38:04.751Z,4.30
2018-12-05T13:40:31.836Z,3.65
2018-12-05T13:42:58.745Z,3.40
2018-12-05T13:45:25.102Z,2.83
2018-12-05T13:47:51.386Z,5.33
2018-12-05T13:50:17.707Z,3.40
2018-12-05T13:52:44.101Z,8.50
2018-12-05T13:58:06.437Z,5.00
2018-12-05T14:00:32.735Z,3.42
2018-12-05T14:03:01.161Z,4.10
2018-12-05T14:05:27.425Z,3.80
2018-12-05T14:07:53.593Z,3.73
2018-12-05T14:10:19.900Z,2.90
2018-12-05T14:12:47.776Z,3.83
2018-12-05T14:15:15.265Z,3.53
2018-12-05T14:17:41.528Z,3.42
2018-12-05T14:20:08.708Z,3.20
2018-12-05T14:22:35.271Z,3.30
2018-12-05T14:25:02.033Z,3.20
2018-12-05T14:27:29.459Z,4.20
2018-12-05T14:29:55.773Z,4.25
2018-12-05T14:32:21.978Z,3.03
2018-12-05T14:37:43.962Z,3.70
2018-12-05T14:40:10.394Z,2.67
2018-12-05T14:42:36.707Z,4.80
2018-12-05T14:45:04.012Z,3.73
2018-12-05T14:47:30.669Z,3.57
2018-12-05T14:49:57.009Z,2.97
2018-12-05T14:52:23.622Z,2.92
2018-12-05T14:54:49.820Z,2.70
2018-12-05T14:57:16.328Z,2.58
2018-12-05T14:59:42.625Z,2.67
2018-12-05T15:02:08.784Z,2.33
2018-12-05T15:04:34.989Z,2.60
2018-12-05T15:07:01.342Z,2.80
2018-12-05T15:09:27.699Z,3.57
2018-12-05T15:11:53.962Z,3.02
2018-12-05T15:14:20.234Z,3.73
2018-12-05T15:16:47.485Z,3.93
2018-12-05T15:19:13.978Z,2.60
2018-12-05T15:21:40.254Z,2.90
2018-12-05T15:24:06.637Z,2.87
2018-12-05T15:26:34.641Z,3.30
2018-12-05T15:29:01.031Z,3.40
2018-12-05T15:31:27.754Z,3.17
2018-12-05T15:33:53.972Z,4.93
2018-12-05T15:36:20.219Z,4.70
2018-12-05T15:38:46.460Z,4.30
2018-12-05T15:41:12.855Z,4.90
2018-12-05T15:43:39.209Z,5.90
2018-12-05T15:46:05.638Z,5.00
2018-12-05T15:48:31.915Z,3.57
2018-12-05T15:50:58.268Z,5.50
2018-12-05T15:53:25.396Z,4.03
2018-12-05T15:55:51.604Z,4.70
2018-12-05T15:58:17.959Z,5.27
2018-12-05T16:00:45.148Z,4.58
2018-12-05T16:03:11.439Z,6.67
2018-12-05T16:05:38.432Z,5.83
2018-12-05T16:08:04.845Z,5.90
2018-12-05T16:10:31.024Z,6.10
2018-12-05T16:12:57.193Z,6.37
2018-12-05T16:15:23.550Z,6.63
2018-12-05T16:17:50.554Z,5.70
2018-12-05T16:20:16.664Z,6.20
2018-12-05T16:22:43.206Z,6.10
2018-12-05T16:25:09.431Z,6.33
2018-12-05T16:27:35.665Z,7.30
2018-12-05T16:30:02.121Z,6.93
2018-12-05T16:32:28.324Z,7.43
2018-12-05T16:34:54.494Z,7.30
2018-12-05T16:37:20.807Z,7.03
2018-12-05T16:39:47.871Z,6.40
2018-12-05T16:42:14.207Z,6.03
2018-12-05T16:44:41.401Z,5.28
2018-12-05T16:47:07.807Z,6.20
2018-12-05T16:49:34.032Z,5.90
2018-12-05T16:52:02.174Z,7.22
2018-12-05T16:54:28.700Z,5.93
2018-12-05T16:56:54.800Z,6.87
2018-12-05T16:59:20.987Z,6.60
2018-12-05T17:01:48.365Z,6.47
2018-12-05T17:04:14.617Z,6.95
2018-12-05T17:06:40.866Z,7.37
2018-12-05T17:09:07.227Z,8.37
2018-12-05T17:11:33.842Z,7.10
2018-12-05T17:14:00.982Z,8.05
2018-12-05T17:16:27.241Z,7.03
2018-12-05T17:18:54.319Z,6.60
2018-12-05T17:21:20.728Z,6.30
2018-12-05T17:23:47.520Z,7.47
2018-12-05T17:26:15.062Z,6.03
2018-12-05T17:28:41.451Z,6.80
2018-12-05T17:31:07.720Z,6.20
2018-12-05T17:33:33.989Z,6.28
2018-12-05T17:36:00.136Z,6.73
2018-12-05T17:38:27.349Z,5.70
2018-12-05T17:40:53.772Z,6.62
2018-12-05T17:43:28.027Z,6.97
2018-12-05T17:45:54.351Z,6.70
2018-12-05T17:48:20.962Z,6.80
2018-12-05T17:50:47.268Z,7.07
2018-12-05T17:53:14.290Z,7.93
2018-12-05T17:55:40.753Z,6.17
2018-12-05T17:58:08.735Z,6.75
2018-12-05T18:00:36.303Z,7.90
2018-12-05T18:03:02.764Z,7.58
2018-12-05T18:05:28.898Z,9.00
2018-12-05T18:07:55.061Z,10.10
2018-12-05T18:10:21.358Z,8.55
2018-12-05T18:12:48.446Z,7.90
2018-12-05T18:15:14.672Z,9.23
2018-12-05T18:17:41.332Z,7.63
2018-12-05T18:20:09.581Z,8.35
2018-12-05T18:22:35.929Z,8.10
2018-12-05T18:25:02.353Z,10.60
2018-12-05T18:27:28.624Z,9.57
2018-12-05T18:29:54.842Z,11.57
2018-12-05T18:32:21.990Z,8.93
2018-12-05T18:34:48.157Z,8.20
2018-12-05T18:37:14.309Z,9.00
2018-12-05T18:39:40.622Z,9.88
2018-12-05T18:42:06.764Z,9.17
2018-12-05T18:44:34.701Z,9.23
2018-12-05T18:47:01.082Z,7.93
2018-12-05T18:49:27.358Z,8.87
2018-12-05T18:51:53.579Z,9.90
2018-12-05T18:54:20.553Z,8.37
2018-12-05T18:56:46.821Z,8.00
2018-12-05T18:59:13.169Z,8.10
2018-12-05T19:01:39.358Z,8.63
2018-12-05T19:04:05.765Z,8.70
2018-12-05T19:06:31.916Z,10.00
2018-12-05T19:08:58.177Z,9.10
2018-12-05T19:11:24.561Z,9.23
2018-12-05T19:13:57.153Z,8.43
2018-12-05T19:16:23.488Z,9.60
2018-12-05T19:18:49.719Z,8.03
2018-12-05T19:21:16.120Z,8.67
2018-12-05T19:23:42.359Z,8.60
2018-12-05T19:26:08.667Z,8.47
2018-12-05T19:28:35.113Z,7.57
2018-12-05T19:31:01.630Z,8.50
2018-12-05T19:33:27.751Z,8.68
2018-12-05T19:35:54.017Z,8.40
2018-12-05T19:38:27.153Z,8.70
2018-12-05T19:40:54.754Z,10.07
2018-12-05T19:43:20.880Z,11.80
2018-12-05T19:45:47.192Z,10.03
2018-12-05T19:48:13.427Z,10.55
2018-12-05T19:50:39.615Z,9.50
2018-12-05T19:53:06.193Z,9.97
2018-12-05T19:55:32.425Z,10.10
2018-12-05T19:57:59.493Z,9.73
2018-12-05T20:00:26.514Z,9.70
2018-12-05T20:02:52.785Z,9.50
2018-12-05T20:05:18.940Z,8.20
2018-12-05T20:07:45.136Z,9.07
2018-12-05T20:10:11.471Z,8.37
2018-12-05T20:12:37.742Z,8.30
2018-12-05T20:15:04.639Z,9.27
2018-12-05T20:17:31.154Z,10.30
2018-12-05T20:19:57.324Z,11.15
2018-12-05T20:22:23.558Z,8.40
2018-12-05T20:24:49.891Z,8.60
2018-12-05T20:27:16.080Z,9.63
2018-12-05T20:29:42.600Z,8.23
2018-12-05T20:32:08.838Z,9.03
2018-12-05T20:34:35.155Z,8.43
2018-12-05T20:40:24.779Z,8.17
2018-12-05T20:42:54.593Z,8.43
2018-12-05T20:45:21.207Z,8.60
2018-12-05T20:47:48.357Z,9.43
2018-12-05T20:50:14.642Z,8.45
2018-12-05T20:52:45.627Z,7.93
2018-12-05T20:55:12.260Z,8.83
2018-12-05T20:57:38.630Z,9.50
2018-12-05T21:00:05.348Z,8.80
2018-12-05T21:02:31.598Z,9.20
2018-12-05T21:04:57.878Z,10.00
2018-12-05T21:07:24.155Z,9.73
2018-12-05T21:09:50.230Z,10.30
2018-12-05T21:12:16.418Z,9.57
2018-12-05T21:14:42.766Z,8.55
2018-12-05T21:17:09.190Z,8.90
2018-12-05T21:19:35.424Z,9.55
2018-12-05T21:22:01.722Z,8.30
2018-12-05T21:24:27.941Z,9.30
2018-12-05T21:26:54.143Z,8.70
2018-12-05T21:29:20.356Z,7.37
2018-12-05T21:31:46.585Z,9.70
2018-12-05T21:34:12.695Z,8.60
2018-12-05T21:36:38.890Z,9.15
2018-12-05T21:39:06.612Z,8.73
2018-12-05T21:41:32.976Z,10.33
2018-12-05T21:43:59.085Z,9.90
2018-12-05T21:46:25.192Z,10.78
2018-12-05T21:48:51.431Z,9.90
2018-12-05T21:51:17.690Z,9.03
2018-12-05T21:53:43.814Z,9.08
2018-12-05T21:56:10.044Z,9.60
2018-12-05T21:58:36.163Z,9.00
2018-12-05T22:01:02.606Z,10.50
2018-12-05T22:03:28.751Z,9.37
2018-12-05T22:05:56.801Z,11.00
2018-12-05T22:08:23.510Z,9.93
2018-12-05T22:10:49.991Z,9.40
2018-12-05T22:13:16.092Z,10.13
2018-12-05T22:15:42.307Z,10.17
2018-12-05T22:18:08.486Z,9.10
2018-12-05T22:20:34.717Z,10.83
2018-12-05T22:23:01.036Z,9.10
2018-12-05T22:25:27.410Z,9.47
2018-12-05T22:27:53.588Z,10.40
2018-12-05T22:30:19.853Z,9.03
2018-12-05T22:32:45.992Z,9.30
2018-12-05T22:35:12.381Z,8.73
2018-12-05T22:37:38.607Z,9.13
2018-12-05T22:40:07.217Z,9.20
2018-12-05T22:42:33.464Z,10.37
2018-12-05T22:44:59.583Z,9.50
2018-12-05T22:47:25.819Z,8.45
2018-12-05T22:49:52.007Z,9.07
2018-12-05T22:52:18.286Z,8.60
2018-12-05T22:54:44.607Z,8.73
2018-12-05T22:57:12.661Z,9.50
2018-12-05T22:59:39.077Z,8.33
2018-12-05T23:02:05.454Z,9.15
2018-12-05T23:04:32.183Z,8.27
2018-12-05T23:06:58.314Z,11.87
2018-12-05T23:09:24.438Z,10.20
2018-12-05T23:11:50.754Z,8.05
2018-12-05T23:14:16.969Z,9.07
2018-12-05T23:16:43.365Z,7.80
2018-12-05T23:19:09.749Z,8.30
2018-12-05T23:21:36.020Z,8.90
2018-12-05T23:24:03.241Z,8.70
2018-12-05T23:26:29.455Z,9.20
2018-12-05T23:28:55.566Z,7.20
2018-12-05T23:31:21.662Z,8.30
2018-12-05T23:33:47.861Z,7.62
2018-12-05T23:36:14.126Z,9.23
2018-12-05T23:38:40.348Z,8.50
2018-12-05T23:41:06.693Z,7.20
2018-12-05T23:43:32.762Z,8.40
2018-12-05T23:45:58.862Z,7.93
2018-12-05T23:48:25.182Z,8.00
2018-12-05T23:50:51.277Z,7.50
2018-12-05T23:53:17.701Z,7.60
2018-12-05T23:55:44.113Z,7.93
2018-12-05T23:58:10.309Z,7.87
